createdAt,value
2023-02-22T00:01:02.968Z,58.38
2023-02-22T00:03:33.267Z,58.81
2023-02-22T00:06:04.817Z,59.31
2023-02-22T00:08:35.594Z,59.63
2023-02-22T00:11:08.459Z,59.06
2023-02-22T00:13:37.364Z,59.18
2023-02-22T00:16:06.840Z,59.16
2023-02-22T00:18:35.049Z,59.08
2023-02-22T00:21:03.587Z,59.23
2023-02-22T00:23:32.756Z,59.00
2023-02-22T00:26:01.890Z,58.83
2023-02-22T00:28:31.288Z,59.16
2023-02-22T00:31:00.202Z,59.61
2023-02-22T00:33:28.430Z,59.24
2023-02-22T00:35:56.489Z,59.18
2023-02-22T00:38:24.853Z,59.43
2023-02-22T00:40:53.157Z,59.60
2023-02-22T00:43:21.307Z,59.63
2023-02-22T00:45:50.709Z,59.71
2023-02-22T00:48:19.576Z,59.65
2023-02-22T00:50:49.041Z,59.33
2023-02-22T00:53:17.571Z,59.58
2023-02-22T00:55:45.584Z,59.92
2023-02-22T00:58:13.754Z,59.59
2023-02-22T01:00:44.130Z,59.93
2023-02-22T01:03:16.024Z,59.41
2023-02-22T01:05:44.727Z,59.99
2023-02-22T01:08:16.548Z,60.22
2023-02-22T01:10:45.001Z,60.40
2023-02-22T01:13:14.590Z,60.08
2023-02-22T01:15:45.246Z,60.04
2023-02-22T01:18:17.189Z,59.63
2023-02-22T01:20:47.837Z,60.04
2023-02-22T01:23:18.470Z,59.72
2023-02-22T01:25:46.694Z,59.76
2023-02-22T01:28:15.991Z,60.02
2023-02-22T01:30:44.178Z,59.85
2023-02-22T01:33:15.531Z,60.11
2023-02-22T01:35:46.206Z,59.86
2023-02-22T01:38:15.192Z,59.71
2023-02-22T01:40:49.655Z,59.80
2023-02-22T01:43:22.497Z,60.93
2023-02-22T01:45:59.039Z,60.26
2023-02-22T01:48:36.212Z,60.09
2023-02-22T01:51:10.840Z,60.69
2023-02-22T01:53:48.472Z,60.33
2023-02-22T01:56:18.764Z,59.92
2023-02-22T01:58:51.748Z,59.99
2023-02-22T02:01:22.993Z,60.26
2023-02-22T02:03:58.491Z,59.85
2023-02-22T02:06:28.049Z,60.07
2023-02-22T02:09:06.709Z,59.83
2023-02-22T02:11:35.232Z,59.86
2023-02-22T02:14:03.210Z,59.79
2023-02-22T02:16:39.896Z,60.08
2023-02-22T02:19:20.332Z,59.65
2023-02-22T02:22:25.543Z,60.38
2023-02-22T02:25:39.314Z,59.42
2023-02-22T02:29:13.234Z,60.31
2023-02-22T02:32:25.161Z,60.62
2023-02-22T02:35:04.319Z,60.87
2023-02-22T02:37:40.869Z,61.54
2023-02-22T02:40:21.561Z,61.31
2023-02-22T02:43:02.023Z,60.89
2023-02-22T02:45:40.936Z,61.41
2023-02-22T02:48:14.893Z,61.06
2023-02-22T02:50:51.178Z,60.47
2023-02-22T02:53:23.333Z,60.77
2023-02-22T02:55:51.405Z,60.92
2023-02-22T02:58:23.309Z,60.48
2023-02-22T03:00:56.474Z,60.62
2023-02-22T03:04:00.296Z,61.18
2023-02-22T03:07:16.527Z,60.94
2023-02-22T03:10:00.272Z,61.51
2023-02-22T03:12:39.905Z,61.11
2023-02-22T03:15:27.043Z,60.63
2023-02-22T03:18:03.411Z,60.48
2023-02-22T03:20:44.004Z,60.34
2023-02-22T03:23:24.743Z,60.45
2023-02-22T03:25:59.073Z,60.48
2023-02-22T03:28:29.585Z,60.38
2023-02-22T03:31:02.999Z,60.87
2023-02-22T03:33:38.285Z,61.59
2023-02-22T03:36:14.770Z,61.11
2023-02-22T03:38:45.710Z,60.90
2023-02-22T03:41:20.593Z,60.82
2023-02-22T03:43:51.896Z,60.85
2023-02-22T03:46:20.415Z,60.20
2023-02-22T03:48:55.414Z,59.90
2023-02-22T03:51:25.785Z,59.88
2023-02-22T03:53:59.218Z,61.00
2023-02-22T03:56:36.587Z,60.83
2023-02-22T03:59:07.308Z,60.52
2023-02-22T04:01:36.386Z,60.47
2023-02-22T04:04:29.479Z,60.50
2023-02-22T04:07:02.049Z,59.72
2023-02-22T04:09:30.957Z,60.63
2023-02-22T04:11:59.028Z,60.86
2023-02-22T04:14:29.487Z,60.22
2023-02-22T04:16:58.982Z,60.51
2023-02-22T04:19:27.972Z,60.20
2023-02-22T04:21:56.424Z,60.75
2023-02-22T04:24:30.425Z,60.18
2023-02-22T04:26:59.018Z,59.90
2023-02-22T04:29:27.340Z,59.55
2023-02-22T04:31:55.963Z,59.84
2023-02-22T04:34:24.191Z,59.69
2023-02-22T04:36:52.420Z,59.80
2023-02-22T04:39:21.196Z,60.15
2023-02-22T04:41:50.817Z,59.38
2023-02-22T04:44:19.015Z,60.28
2023-02-22T04:46:47.485Z,59.91
2023-02-22T04:49:17.100Z,60.42
2023-02-22T04:51:46.530Z,60.46
2023-02-22T04:54:17.192Z,60.86
2023-02-22T04:56:48.065Z,60.08
2023-02-22T04:59:17.607Z,60.41
2023-02-22T05:01:48.121Z,60.15
2023-02-22T05:04:16.299Z,60.14
2023-02-22T05:06:44.344Z,60.41
2023-02-22T05:09:12.364Z,60.45
2023-02-22T05:11:40.393Z,60.45
2023-02-22T05:14:08.502Z,60.59
2023-02-22T05:16:38.583Z,60.64
2023-02-22T05:19:06.664Z,60.25
2023-02-22T05:21:34.695Z,60.45
2023-02-22T05:24:02.856Z,60.58
2023-02-22T05:26:30.902Z,60.16
2023-02-22T05:28:58.974Z,60.73
2023-02-22T05:31:27.036Z,60.95
2023-02-22T05:33:56.463Z,60.98
2023-02-22T05:36:24.835Z,61.12
2023-02-22T05:38:52.876Z,60.85
2023-02-22T05:41:21.048Z,60.97
2023-02-22T05:43:49.266Z,61.72
2023-02-22T05:46:17.372Z,61.46
2023-02-22T05:48:45.521Z,61.39
2023-02-22T05:51:15.122Z,62.05
2023-02-22T05:53:43.548Z,61.94
2023-02-22T05:56:11.682Z,61.61
2023-02-22T05:58:39.749Z,61.59
2023-02-22T06:01:07.763Z,61.58
2023-02-22T06:03:35.835Z,61.70
2023-02-22T06:06:05.407Z,61.74
2023-02-22T06:08:34.810Z,61.76
2023-02-22T06:11:02.855Z,61.52
2023-02-22T06:13:30.916Z,61.10
2023-02-22T06:15:59.080Z,60.89
2023-02-22T06:18:30.361Z,61.15
2023-02-22T06:20:58.699Z,61.16
2023-02-22T06:23:28.180Z,61.03
2023-02-22T06:25:57.761Z,61.16
2023-02-22T06:28:26.367Z,60.79
2023-02-22T06:30:54.435Z,60.87
2023-02-22T06:33:22.642Z,60.58
2023-02-22T06:35:50.696Z,60.29
2023-02-22T06:38:25.737Z,60.37
2023-02-22T06:40:55.236Z,60.72
2023-02-22T06:43:25.761Z,60.41
2023-02-22T06:45:54.548Z,60.96
2023-02-22T06:48:22.626Z,60.34
2023-02-22T06:50:51.229Z,61.19
2023-02-22T06:53:19.523Z,60.65
2023-02-22T06:55:47.625Z,60.74
2023-02-22T06:58:16.001Z,60.68
2023-02-22T07:00:45.396Z,60.87
2023-02-22T07:03:14.272Z,60.79
2023-02-22T07:05:42.429Z,60.80
2023-02-22T07:08:11.425Z,60.68
2023-02-22T07:10:40.860Z,60.97
2023-02-22T07:13:09.747Z,61.07
2023-02-22T07:15:38.207Z,60.48
2023-02-22T07:18:07.953Z,60.68
2023-02-22T07:20:36.273Z,60.96
2023-02-22T07:23:07.561Z,61.02
2023-02-22T07:25:36.003Z,60.85
2023-02-22T07:28:04.053Z,61.07
2023-02-22T07:30:34.502Z,60.65
2023-02-22T07:33:06.084Z,61.40
2023-02-22T07:35:40.144Z,60.99
2023-02-22T07:38:12.501Z,61.03
2023-02-22T07:40:41.120Z,60.95
2023-02-22T07:47:44.521Z,60.55
2023-02-22T07:50:14.359Z,60.29
2023-02-22T07:52:47.622Z,60.16
2023-02-22T07:55:17.802Z,60.18
2023-02-22T07:57:47.644Z,59.96
2023-02-22T08:00:26.182Z,59.68
2023-02-22T08:05:49.732Z,59.85
2023-02-22T08:08:20.008Z,59.65
2023-02-22T08:10:49.297Z,59.69
2023-02-22T08:13:18.078Z,59.55
2023-02-22T08:15:47.386Z,59.52
2023-02-22T08:18:20.215Z,59.20
2023-02-22T08:20:50.289Z,59.05
2023-02-22T08:23:22.458Z,59.50
2023-02-22T08:25:50.624Z,59.12
2023-02-22T08:28:23.276Z,58.79
2023-02-22T08:30:52.105Z,58.82
2023-02-22T08:33:21.374Z,58.93
2023-02-22T08:35:51.900Z,58.73
2023-02-22T08:38:27.441Z,59.26
2023-02-22T08:40:55.998Z,58.99
2023-02-22T08:43:24.955Z,58.54
2023-02-22T08:45:55.528Z,57.42
2023-02-22T08:48:28.422Z,57.26
2023-02-22T08:50:56.850Z,57.34
2023-02-22T08:53:26.496Z,57.23
2023-02-22T08:58:51.189Z,56.97
2023-02-22T09:01:31.446Z,56.69
2023-02-22T09:05:07.592Z,56.25
2023-02-22T09:07:38.899Z,56.72
2023-02-22T09:10:09.725Z,57.04
2023-02-22T09:12:38.386Z,56.56
2023-02-22T09:15:07.755Z,56.61
2023-02-22T09:17:37.641Z,56.28
2023-02-22T09:20:29.410Z,55.78
2023-02-22T09:23:39.234Z,55.32
2023-02-22T09:26:23.770Z,55.08
2023-02-22T09:28:54.115Z,54.90
2023-02-22T09:31:41.870Z,54.12
2023-02-22T09:34:45.995Z,54.10
2023-02-22T09:37:49.732Z,54.42
2023-02-22T09:40:32.397Z,54.03
2023-02-22T09:43:25.345Z,53.54
2023-02-22T09:46:13.960Z,53.40
2023-02-22T09:48:58.783Z,53.79
2023-02-22T09:51:35.685Z,53.12
2023-02-22T09:54:11.030Z,52.33
2023-02-22T09:56:39.626Z,52.52
2023-02-22T09:59:12.604Z,52.49
2023-02-22T10:01:45.914Z,52.33
2023-02-22T10:04:22.038Z,51.86
2023-02-22T10:07:06.022Z,51.59
2023-02-22T10:09:42.521Z,51.69
2023-02-22T10:12:16.151Z,50.78
2023-02-22T10:15:15.980Z,51.21
2023-02-22T10:17:51.212Z,51.91
2023-02-22T10:20:32.394Z,50.21
2023-02-22T10:23:12.775Z,49.42
2023-02-22T10:25:45.069Z,49.63
2023-02-22T10:28:19.074Z,50.06
2023-02-22T10:30:54.930Z,49.23
2023-02-22T10:33:27.396Z,48.59
2023-02-22T10:35:57.103Z,47.99
2023-02-22T10:38:28.691Z,48.46
2023-02-22T10:41:02.968Z,48.08
2023-02-22T10:43:31.723Z,48.46
2023-02-22T10:46:04.457Z,48.41
2023-02-22T10:48:37.626Z,48.25
2023-02-22T10:51:09.466Z,48.70
2023-02-22T10:53:39.331Z,48.48
2023-02-22T10:56:17.341Z,48.39
2023-02-22T10:58:50.508Z,48.69
2023-02-22T11:01:28.504Z,48.55
2023-02-22T11:04:05.081Z,47.78
2023-02-22T11:06:36.901Z,47.55
2023-02-22T11:09:16.047Z,47.49
2023-02-22T11:11:48.130Z,46.67
2023-02-22T11:14:28.780Z,46.70
2023-02-22T11:16:59.493Z,47.13
2023-02-22T11:19:30.072Z,46.47
2023-02-22T11:22:14.786Z,47.51
2023-02-22T11:24:51.536Z,47.52
2023-02-22T11:27:35.290Z,47.72
2023-02-22T11:30:22.614Z,48.29
2023-02-22T11:32:58.586Z,48.60
2023-02-22T11:35:40.900Z,47.93
2023-02-22T11:38:18.440Z,48.40
2023-02-22T11:40:47.060Z,48.70
2023-02-22T11:43:20.246Z,48.51
2023-02-22T11:46:02.393Z,48.13
2023-02-22T11:48:36.550Z,48.07
2023-02-22T11:51:24.334Z,48.07
2023-02-22T11:54:25.475Z,48.59
2023-02-22T11:56:58.496Z,48.10
2023-02-22T11:59:37.521Z,48.44
2023-02-22T12:02:30.373Z,48.52
2023-02-22T12:05:20.885Z,48.18
2023-02-22T12:08:10.702Z,48.22
2023-02-22T12:11:02.488Z,48.27
2023-02-22T12:13:55.131Z,48.79
2023-02-22T12:16:35.455Z,48.59
2023-02-22T12:19:22.017Z,48.78
2023-02-22T12:21:57.140Z,49.47
2023-02-22T12:24:33.310Z,49.42
2023-02-22T12:27:06.725Z,49.74
2023-02-22T12:29:42.206Z,49.37
2023-02-22T12:32:17.459Z,50.50
2023-02-22T12:34:51.218Z,50.46
2023-02-22T12:37:25.284Z,49.73
2023-02-22T12:40:08.343Z,50.10
2023-02-22T12:42:51.325Z,49.81
2023-02-22T12:45:40.969Z,49.52
2023-02-22T12:48:32.277Z,49.35
2023-02-22T12:51:09.654Z,49.10
2023-02-22T12:53:44.810Z,48.42
2023-02-22T12:56:24.817Z,48.18
2023-02-22T12:59:02.793Z,48.71
2023-02-22T13:01:38.554Z,49.17
2023-02-22T13:04:20.170Z,48.92
2023-02-22T13:07:02.988Z,49.19
2023-02-22T13:10:12.321Z,48.47
2023-02-22T13:12:53.882Z,49.00
2023-02-22T13:15:29.589Z,49.11
2023-02-22T13:18:11.253Z,49.55
2023-02-22T13:20:47.946Z,48.85
2023-02-22T13:23:31.226Z,49.60
2023-02-22T13:26:11.132Z,49.78
2023-02-22T13:28:46.451Z,49.35
2023-02-22T13:31:36.799Z,49.17
2023-02-22T13:34:37.012Z,50.18
2023-02-22T13:37:50.812Z,49.63
2023-02-22T13:40:57.304Z,50.14
2023-02-22T13:43:47.797Z,49.46
2023-02-22T13:46:56.950Z,49.26
2023-02-22T13:49:48.019Z,49.84
2023-02-22T13:52:21.737Z,49.83
2023-02-22T13:54:54.435Z,49.84
2023-02-22T13:57:26.130Z,49.83
2023-02-22T14:00:25.974Z,49.65
2023-02-22T14:03:06.752Z,49.70
2023-02-22T14:05:50.873Z,49.00
2023-02-22T14:08:45.737Z,49.81
2023-02-22T14:11:47.220Z,49.97
2023-02-22T14:14:20.343Z,50.14
2023-02-22T14:17:24.855Z,50.19
2023-02-22T14:20:29.986Z,50.47
2023-02-22T14:23:19.872Z,49.77
2023-02-22T14:25:50.081Z,49.86
2023-02-22T14:28:43.841Z,49.90
2023-02-22T14:31:29.528Z,50.50
2023-02-22T14:34:10.541Z,50.25
2023-02-22T14:36:53.338Z,49.97
2023-02-22T14:39:32.001Z,49.81
2023-02-22T14:42:07.584Z,49.84
2023-02-22T14:44:42.537Z,49.91
2023-02-22T14:47:20.898Z,49.22
2023-02-22T14:49:54.770Z,49.83
2023-02-22T14:52:27.744Z,50.06
2023-02-22T14:55:18.454Z,49.62
2023-02-22T14:58:00.150Z,49.18
2023-02-22T15:00:37.614Z,49.49
2023-02-22T15:03:05.837Z,49.07
2023-02-22T15:05:39.206Z,49.82
2023-02-22T15:08:09.761Z,49.65
2023-02-22T15:10:46.458Z,49.24
2023-02-22T15:13:23.747Z,49.27
2023-02-22T15:16:00.590Z,49.29
2023-02-22T15:18:34.912Z,49.34
2023-02-22T15:21:13.102Z,49.26
2023-02-22T15:23:44.964Z,49.54
2023-02-22T15:26:22.939Z,49.54
2023-02-22T15:28:56.413Z,49.61
2023-02-22T15:31:30.941Z,49.68
2023-02-22T15:34:22.168Z,49.78
2023-02-22T15:36:54.454Z,49.96
2023-02-22T15:39:27.026Z,49.75
2023-02-22T15:42:07.807Z,50.01
2023-02-22T15:44:40.403Z,50.17
2023-02-22T15:47:13.059Z,50.37
2023-02-22T15:49:41.057Z,50.20
2023-02-22T15:52:19.876Z,50.38
2023-02-22T15:54:51.372Z,50.60
2023-02-22T15:57:27.353Z,50.45
2023-02-22T15:59:58.537Z,50.15
2023-02-22T16:02:44.424Z,50.17
2023-02-22T16:05:18.307Z,49.73
2023-02-22T16:07:50.352Z,50.00
2023-02-22T16:10:27.256Z,50.35
2023-02-22T16:13:10.024Z,50.05
2023-02-22T16:15:43.716Z,50.34
2023-02-22T16:18:24.522Z,50.14
2023-02-22T16:21:00.976Z,50.25
2023-02-22T16:23:30.493Z,50.43
2023-02-22T16:26:21.979Z,50.74
2023-02-22T16:28:52.876Z,50.43
2023-02-22T16:31:25.132Z,50.38
2023-02-22T16:33:54.337Z,50.12
2023-02-22T16:36:37.819Z,49.84
2023-02-22T16:39:08.183Z,49.80
2023-02-22T16:41:36.233Z,49.87
2023-02-22T16:44:07.594Z,50.26
2023-02-22T16:46:37.842Z,49.99
2023-02-22T16:49:06.477Z,49.99
2023-02-22T16:51:41.755Z,49.87
2023-02-22T16:54:13.696Z,50.22
2023-02-22T16:56:42.138Z,50.39
2023-02-22T16:59:14.928Z,50.50
2023-02-22T17:01:44.909Z,50.12
2023-02-22T17:04:19.881Z,50.88
2023-02-22T17:06:48.724Z,51.24
2023-02-22T17:09:17.102Z,51.37
2023-02-22T17:11:45.438Z,51.39
2023-02-22T17:14:19.352Z,51.22
2023-02-22T17:16:48.885Z,51.40
2023-02-22T17:19:19.490Z,52.04
2023-02-22T17:21:47.841Z,51.61
2023-02-22T17:24:18.415Z,52.26
2023-02-22T17:26:46.511Z,52.44
2023-02-22T17:29:15.275Z,52.06
2023-02-22T17:31:43.617Z,52.27
2023-02-22T17:34:13.164Z,52.47
2023-02-22T17:36:42.001Z,52.55
2023-02-22T17:39:10.946Z,52.58
2023-02-22T17:41:40.701Z,52.98
2023-02-22T17:44:09.503Z,52.90
2023-02-22T17:46:37.692Z,53.11
2023-02-22T17:49:05.790Z,52.65
2023-02-22T17:51:35.416Z,52.84
2023-02-22T17:54:03.411Z,53.17
2023-02-22T17:56:31.473Z,52.95
2023-02-22T17:58:59.694Z,53.39
2023-02-22T18:01:31.042Z,53.15
2023-02-22T18:04:02.820Z,53.71
2023-02-22T18:06:32.962Z,53.59
2023-02-22T18:09:10.056Z,53.81
2023-02-22T18:11:40.423Z,54.49
2023-02-22T18:14:10.735Z,53.82
2023-02-22T18:16:39.374Z,54.08
2023-02-22T18:19:07.475Z,54.37
2023-02-22T18:21:35.531Z,54.06
2023-02-22T18:24:05.580Z,53.73
2023-02-22T18:26:34.406Z,53.48
2023-02-22T18:29:02.580Z,53.45
2023-02-22T18:31:30.650Z,52.84
2023-02-22T18:33:58.925Z,52.92
2023-02-22T18:36:26.976Z,52.49
2023-02-22T18:38:56.285Z,52.53
2023-02-22T18:41:26.241Z,52.65
2023-02-22T18:43:58.439Z,52.81
2023-02-22T18:46:27.680Z,52.66
2023-02-22T18:48:57.639Z,53.27
2023-02-22T18:51:27.134Z,53.66
2023-02-22T18:54:00.251Z,53.72
2023-02-22T18:56:31.360Z,54.07
2023-02-22T18:59:02.214Z,54.20
2023-02-22T19:01:35.616Z,53.96
2023-02-22T19:04:03.672Z,54.28
2023-02-22T19:06:34.862Z,54.19
2023-02-22T19:09:04.626Z,54.64
2023-02-22T19:11:33.997Z,55.08
2023-02-22T19:14:03.981Z,55.34
2023-02-22T19:16:32.564Z,55.65
2023-02-22T19:19:01.905Z,55.73
2023-02-22T19:21:33.477Z,55.37
2023-02-22T19:24:01.661Z,55.79
2023-02-22T19:26:30.705Z,56.12
2023-02-22T19:29:05.286Z,55.81
2023-02-22T19:31:34.481Z,56.49
2023-02-22T19:34:05.094Z,56.18
2023-02-22T19:36:34.095Z,56.50
2023-02-22T19:39:02.462Z,56.29
2023-02-22T19:41:30.944Z,56.28
2023-02-22T19:44:02.631Z,56.14
2023-02-22T19:46:31.982Z,56.66
2023-02-22T19:49:00.218Z,56.69
2023-02-22T19:51:30.965Z,56.77
2023-02-22T19:54:02.359Z,56.73
2023-02-22T19:56:32.151Z,57.04
2023-02-22T19:59:09.388Z,56.81
2023-02-22T20:01:38.487Z,57.38
2023-02-22T20:04:11.947Z,57.30
2023-02-22T20:06:42.210Z,57.11
2023-02-22T20:09:13.462Z,57.07
2023-02-22T20:11:41.534Z,56.95
2023-02-22T20:14:16.564Z,56.64
2023-02-22T20:16:44.714Z,57.16
2023-02-22T20:19:13.523Z,57.30
2023-02-22T20:21:41.867Z,57.29
2023-02-22T20:24:14.928Z,56.70
2023-02-22T20:26:43.842Z,56.90
2023-02-22T20:29:14.065Z,57.41
2023-02-22T20:31:43.966Z,57.32
2023-02-22T20:34:12.805Z,57.68
2023-02-22T20:36:43.540Z,58.16
2023-02-22T20:39:14.913Z,57.68
2023-02-22T20:41:46.233Z,58.25
2023-02-22T20:44:18.254Z,57.74
2023-02-22T20:46:47.644Z,58.15
2023-02-22T20:49:17.920Z,58.28
2023-02-22T20:51:47.161Z,57.98
2023-02-22T20:54:16.100Z,57.87
2023-02-22T20:56:45.991Z,58.07
2023-02-22T20:59:18.452Z,57.83
2023-02-22T21:01:48.028Z,57.94
2023-02-22T21:04:23.172Z,57.73
2023-02-22T21:06:51.959Z,57.92
2023-02-22T21:09:22.482Z,58.09
2023-02-22T21:11:51.509Z,58.56
2023-02-22T21:14:20.899Z,58.08
2023-02-22T21:16:52.316Z,58.26
2023-02-22T21:19:25.256Z,58.55
2023-02-22T21:22:01.972Z,58.36
2023-02-22T21:24:31.603Z,58.44
2023-02-22T21:27:00.125Z,58.14
2023-02-22T21:29:30.087Z,58.37
2023-02-22T21:31:58.587Z,58.43
2023-02-22T21:34:26.712Z,58.36
2023-02-22T21:36:55.187Z,58.17
2023-02-22T21:39:28.112Z,58.84
2023-02-22T21:42:00.027Z,58.83
2023-02-22T21:44:31.011Z,59.14
2023-02-22T21:46:59.054Z,59.27
2023-02-22T21:49:27.181Z,58.97
2023-02-22T21:51:56.403Z,59.20
2023-02-22T21:54:24.857Z,59.72
2023-02-22T21:56:54.360Z,59.25
2023-02-22T21:59:23.783Z,59.81
2023-02-22T22:01:56.426Z,59.50
2023-02-22T22:04:29.469Z,60.03
2023-02-22T22:07:00.078Z,59.43
2023-02-22T22:09:32.801Z,60.41
2023-02-22T22:12:05.070Z,59.63
2023-02-22T22:14:35.469Z,59.80
2023-02-22T22:17:07.799Z,59.95
2023-02-22T22:19:40.442Z,59.84
2023-02-22T22:22:09.131Z,59.87
2023-02-22T22:24:37.952Z,59.85
2023-02-22T22:27:09.644Z,60.18
2023-02-22T22:29:37.676Z,60.04
2023-02-22T22:32:07.499Z,59.72
2023-02-22T22:34:37.776Z,60.41
2023-02-22T22:37:05.989Z,59.89
2023-02-22T22:39:33.979Z,60.51
2023-02-22T22:42:02.021Z,60.46
2023-02-22T22:44:32.682Z,60.48
2023-02-22T22:47:00.958Z,60.34
2023-02-22T22:49:32.526Z,60.50
2023-02-22T22:52:00.563Z,61.14
2023-02-22T22:54:28.887Z,61.38
2023-02-22T22:56:56.897Z,61.37
2023-02-22T22:59:24.936Z,61.09
2023-02-22T23:01:52.920Z,60.74
2023-02-22T23:04:24.077Z,60.87
2023-02-22T23:06:55.355Z,60.96
2023-02-22T23:09:26.501Z,61.09
2023-02-22T23:12:01.822Z,61.06
2023-02-22T23:14:31.121Z,61.23
2023-02-22T23:17:03.282Z,61.37
2023-02-22T23:19:32.372Z,61.15
2023-02-22T23:22:05.146Z,60.70
2023-02-22T23:24:36.052Z,60.70
2023-02-22T23:27:07.218Z,60.79
2023-02-22T23:29:39.309Z,60.71
2023-02-22T23:32:08.835Z,60.14
2023-02-22T23:34:40.917Z,60.76
2023-02-22T23:37:13.497Z,61.72
2023-02-22T23:39:41.614Z,61.23
2023-02-22T23:42:09.646Z,61.73
2023-02-22T23:44:39.714Z,61.55
2023-02-22T23:47:07.724Z,61.70
2023-02-22T23:49:38.204Z,61.40
2023-02-22T23:52:08.832Z,62.04
2023-02-22T23:54:43.842Z,61.59
2023-02-22T23:57:12.181Z,62.12
2023-02-22T23:59:40.732Z,62.16
